sensor_id;sensor_type;location;lat;lon;timestamp;P1;durP1;ratioP1;P2;durP2;ratioP2
57842;SDS011;43673;51.058;3.734;2023-03-01T00:01:30;11.88;;;7.95;;
57842;SDS011;43673;51.058;3.734;2023-03-01T00:03:56;11.75;;;7.47;;
57842;SDS011;43673;51.058;3.734;2023-03-01T00:06:23;13.88;;;8.13;;
57842;SDS011;43673;51.058;3.734;2023-03-01T00:08:50;12.48;;;7.50;;
57842;SDS011;43673;51.058;3.734;2023-03-01T00:11:17;12.48;;;7.68;;
57842;SDS011;43673;51.058;3.734;2023-03-01T00:13:45;12.97;;;8.17;;
57842;SDS011;43673;51.058;3.734;2023-03-01T00:16:16;10.75;;;8.32;;
57842;SDS011;43673;51.058;3.734;2023-03-01T00:18:46;10.38;;;8.00;;
57842;SDS011;43673;51.058;3.734;2023-03-01T00:21:12;16.75;;;9.57;;
57842;SDS011;43673;51.058;3.734;2023-03-01T00:23:38;11.40;;;8.75;;
57842;SDS011;43673;51.058;3.734;2023-03-01T00:26:11;13.07;;;8.85;;
57842;SDS011;43673;51.058;3.734;2023-03-01T00:28:38;11.85;;;8.48;;
57842;SDS011;43673;51.058;3.734;2023-03-01T00:31:05;10.55;;;7.88;;
57842;SDS011;43673;51.058;3.734;2023-03-01T00:33:36;10.15;;;7.80;;
57842;SDS011;43673;51.058;3.734;2023-03-01T00:36:02;9.73;;;8.27;;
57842;SDS011;43673;51.058;3.734;2023-03-01T00:38:28;15.60;;;9.15;;
57842;SDS011;43673;51.058;3.734;2023-03-01T00:40:54;12.77;;;9.45;;
57842;SDS011;43673;51.058;3.734;2023-03-01T00:43:20;14.07;;;10.18;;
57842;SDS011;43673;51.058;3.734;2023-03-01T00:45:46;9.73;;;8.68;;
57842;SDS011;43673;51.058;3.734;2023-03-01T00:48:12;12.52;;;8.68;;
57842;SDS011;43673;51.058;3.734;2023-03-01T00:50:37;14.63;;;8.77;;
57842;SDS011;43673;51.058;3.734;2023-03-01T00:53:03;12.43;;;9.30;;
57842;SDS011;43673;51.058;3.734;2023-03-01T00:55:30;13.57;;;9.48;;
57842;SDS011;43673;51.058;3.734;2023-03-01T00:57:56;13.10;;;10.25;;
57842;SDS011;43673;51.058;3.734;2023-03-01T01:00:22;13.70;;;9.82;;
57842;SDS011;43673;51.058;3.734;2023-03-01T01:02:47;12.43;;;10.48;;
57842;SDS011;43673;51.058;3.734;2023-03-01T01:05:13;14.23;;;9.88;;
57842;SDS011;43673;51.058;3.734;2023-03-01T01:07:39;16.63;;;10.57;;
57842;SDS011;43673;51.058;3.734;2023-03-01T01:10:05;15.85;;;10.30;;
57842;SDS011;43673;51.058;3.734;2023-03-01T01:12:33;12.45;;;10.60;;
57842;SDS011;43673;51.058;3.734;2023-03-01T01:15:00;16.98;;;11.15;;
57842;SDS011;43673;51.058;3.734;2023-03-01T01:17:26;15.15;;;10.18;;
57842;SDS011;43673;51.058;3.734;2023-03-01T01:19:51;14.05;;;10.35;;
57842;SDS011;43673;51.058;3.734;2023-03-01T01:22:17;15.98;;;10.65;;
57842;SDS011;43673;51.058;3.734;2023-03-01T01:24:43;15.95;;;11.25;;
57842;SDS011;43673;51.058;3.734;2023-03-01T01:27:08;16.92;;;11.52;;
57842;SDS011;43673;51.058;3.734;2023-03-01T01:29:34;20.50;;;12.80;;
57842;SDS011;43673;51.058;3.734;2023-03-01T01:31:59;18.05;;;12.32;;
57842;SDS011;43673;51.058;3.734;2023-03-01T01:34:25;13.85;;;10.80;;
57842;SDS011;43673;51.058;3.734;2023-03-01T01:36:52;22.15;;;13.18;;
57842;SDS011;43673;51.058;3.734;2023-03-01T01:39:21;16.30;;;11.52;;
57842;SDS011;43673;51.058;3.734;2023-03-01T01:41:47;15.93;;;12.60;;
57842;SDS011;43673;51.058;3.734;2023-03-01T01:44:15;16.90;;;11.95;;
57842;SDS011;43673;51.058;3.734;2023-03-01T01:49:31;16.08;;;11.70;;
57842;SDS011;43673;51.058;3.734;2023-03-01T01:52:27;14.60;;;11.65;;
57842;SDS011;43673;51.058;3.734;2023-03-01T01:55:09;15.82;;;12.75;;
57842;SDS011;43673;51.058;3.734;2023-03-01T01:58:01;26.92;;;13.98;;
57842;SDS011;43673;51.058;3.734;2023-03-01T02:00:29;16.60;;;11.57;;
57842;SDS011;43673;51.058;3.734;2023-03-01T02:02:59;17.60;;;12.40;;
57842;SDS011;43673;51.058;3.734;2023-03-01T02:08:24;18.83;;;11.50;;
57842;SDS011;43673;51.058;3.734;2023-03-01T02:10:52;23.52;;;13.63;;
57842;SDS011;43673;51.058;3.734;2023-03-01T02:13:19;20.15;;;13.13;;
57842;SDS011;43673;51.058;3.734;2023-03-01T02:15:45;21.48;;;13.40;;
57842;SDS011;43673;51.058;3.734;2023-03-01T02:18:12;20.33;;;14.02;;
57842;SDS011;43673;51.058;3.734;2023-03-01T02:21:01;17.88;;;13.13;;
57842;SDS011;43673;51.058;3.734;2023-03-01T02:23:29;21.08;;;14.07;;
57842;SDS011;43673;51.058;3.734;2023-03-01T02:28:50;22.73;;;13.45;;
57842;SDS011;43673;51.058;3.734;2023-03-01T02:31:17;26.38;;;15.50;;
57842;SDS011;43673;51.058;3.734;2023-03-01T02:34:03;22.33;;;15.25;;
57842;SDS011;43673;51.058;3.734;2023-03-01T02:36:35;23.70;;;14.88;;
57842;SDS011;43673;51.058;3.734;2023-03-01T02:39:06;21.98;;;15.85;;
57842;SDS011;43673;51.058;3.734;2023-03-01T02:41:39;24.05;;;15.20;;
57842;SDS011;43673;51.058;3.734;2023-03-01T02:44:07;25.60;;;16.20;;
57842;SDS011;43673;51.058;3.734;2023-03-01T02:46:34;26.48;;;16.60;;
57842;SDS011;43673;51.058;3.734;2023-03-01T02:49:27;23.40;;;15.70;;
57842;SDS011;43673;51.058;3.734;2023-03-01T02:55:00;29.15;;;18.50;;
57842;SDS011;43673;51.058;3.734;2023-03-01T02:57:38;25.42;;;17.63;;
57842;SDS011;43673;51.058;3.734;2023-03-01T03:00:09;31.60;;;18.73;;
57842;SDS011;43673;51.058;3.734;2023-03-01T03:02:44;24.67;;;16.92;;
57842;SDS011;43673;51.058;3.734;2023-03-01T03:05:13;26.17;;;16.88;;
57842;SDS011;43673;51.058;3.734;2023-03-01T03:07:42;31.15;;;17.75;;
57842;SDS011;43673;51.058;3.734;2023-03-01T03:10:19;24.80;;;17.70;;
57842;SDS011;43673;51.058;3.734;2023-03-01T03:12:51;28.52;;;17.63;;
57842;SDS011;43673;51.058;3.734;2023-03-01T03:15:18;25.75;;;16.55;;
57842;SDS011;43673;51.058;3.734;2023-03-01T03:17:48;26.48;;;16.52;;
57842;SDS011;43673;51.058;3.734;2023-03-01T03:20:16;28.42;;;17.83;;
57842;SDS011;43673;51.058;3.734;2023-03-01T03:22:44;26.00;;;16.35;;
57842;SDS011;43673;51.058;3.734;2023-03-01T03:25:13;29.05;;;14.52;;
57842;SDS011;43673;51.058;3.734;2023-03-01T03:27:39;25.30;;;16.30;;
57842;SDS011;43673;51.058;3.734;2023-03-01T03:30:09;26.95;;;16.67;;
57842;SDS011;43673;51.058;3.734;2023-03-01T03:32:41;27.00;;;16.23;;
57842;SDS011;43673;51.058;3.734;2023-03-01T03:35:17;27.27;;;16.00;;
57842;SDS011;43673;51.058;3.734;2023-03-01T03:37:49;22.90;;;14.85;;
57842;SDS011;43673;51.058;3.734;2023-03-01T03:40:33;28.27;;;17.60;;
57842;SDS011;43673;51.058;3.734;2023-03-01T03:43:26;27.67;;;17.95;;
57842;SDS011;43673;51.058;3.734;2023-03-01T03:45:51;22.42;;;16.38;;
57842;SDS011;43673;51.058;3.734;2023-03-01T03:48:18;31.60;;;19.00;;
57842;SDS011;43673;51.058;3.734;2023-03-01T03:50:52;28.63;;;17.92;;
57842;SDS011;43673;51.058;3.734;2023-03-01T03:53:20;35.03;;;18.95;;
57842;SDS011;43673;51.058;3.734;2023-03-01T03:55:48;26.00;;;17.20;;
57842;SDS011;43673;51.058;3.734;2023-03-01T03:58:14;32.20;;;18.30;;
57842;SDS011;43673;51.058;3.734;2023-03-01T04:00:42;34.50;;;17.63;;
57842;SDS011;43673;51.058;3.734;2023-03-01T04:03:10;30.85;;;18.48;;
57842;SDS011;43673;51.058;3.734;2023-03-01T04:05:37;29.45;;;18.95;;
57842;SDS011;43673;51.058;3.734;2023-03-01T04:08:04;30.75;;;19.48;;
57842;SDS011;43673;51.058;3.734;2023-03-01T04:10:37;30.73;;;19.40;;
57842;SDS011;43673;51.058;3.734;2023-03-01T04:13:05;38.05;;;19.08;;
57842;SDS011;43673;51.058;3.734;2023-03-01T04:15:32;33.92;;;20.02;;
57842;SDS011;43673;51.058;3.734;2023-03-01T04:17:58;33.90;;;18.88;;
57842;SDS011;43673;51.058;3.734;2023-03-01T04:20:26;28.35;;;18.63;;
57842;SDS011;43673;51.058;3.734;2023-03-01T04:25:24;30.42;;;18.52;;
57842;SDS011;43673;51.058;3.734;2023-03-01T04:27:50;28.85;;;18.88;;
57842;SDS011;43673;51.058;3.734;2023-03-01T04:30:16;30.45;;;18.52;;
57842;SDS011;43673;51.058;3.734;2023-03-01T04:32:43;32.97;;;18.67;;
57842;SDS011;43673;51.058;3.734;2023-03-01T04:35:08;31.20;;;18.17;;
57842;SDS011;43673;51.058;3.734;2023-03-01T04:37:34;35.35;;;20.10;;
57842;SDS011;43673;51.058;3.734;2023-03-01T04:40:00;32.60;;;18.77;;
57842;SDS011;43673;51.058;3.734;2023-03-01T04:42:38;31.45;;;18.30;;
57842;SDS011;43673;51.058;3.734;2023-03-01T04:45:24;31.60;;;19.65;;
57842;SDS011;43673;51.058;3.734;2023-03-01T04:47:49;32.15;;;18.50;;
57842;SDS011;43673;51.058;3.734;2023-03-01T04:50:17;42.67;;;20.30;;
57842;SDS011;43673;51.058;3.734;2023-03-01T04:52:45;32.08;;;18.05;;
57842;SDS011;43673;51.058;3.734;2023-03-01T04:55:12;31.70;;;18.85;;
57842;SDS011;43673;51.058;3.734;2023-03-01T04:57:38;30.08;;;18.48;;
57842;SDS011;43673;51.058;3.734;2023-03-01T05:00:06;32.95;;;19.88;;
57842;SDS011;43673;51.058;3.734;2023-03-01T05:02:52;34.83;;;18.98;;
57842;SDS011;43673;51.058;3.734;2023-03-01T05:05:21;36.78;;;20.52;;
57842;SDS011;43673;51.058;3.734;2023-03-01T05:07:54;35.22;;;19.50;;
57842;SDS011;43673;51.058;3.734;2023-03-01T05:10:25;35.40;;;20.25;;
57842;SDS011;43673;51.058;3.734;2023-03-01T05:12:54;34.70;;;19.17;;
57842;SDS011;43673;51.058;3.734;2023-03-01T05:15:22;34.85;;;18.58;;
57842;SDS011;43673;51.058;3.734;2023-03-01T05:17:50;36.97;;;20.02;;
57842;SDS011;43673;51.058;3.734;2023-03-01T05:20:24;35.08;;;21.00;;
57842;SDS011;43673;51.058;3.734;2023-03-01T05:22:51;38.58;;;19.80;;
57842;SDS011;43673;51.058;3.734;2023-03-01T05:25:21;36.65;;;20.95;;
57842;SDS011;43673;51.058;3.734;2023-03-01T05:27:47;33.47;;;19.13;;
57842;SDS011;43673;51.058;3.734;2023-03-01T05:30:13;34.53;;;19.20;;
57842;SDS011;43673;51.058;3.734;2023-03-01T05:35:09;32.92;;;19.73;;
57842;SDS011;43673;51.058;3.734;2023-03-01T05:37:39;35.47;;;20.02;;
57842;SDS011;43673;51.058;3.734;2023-03-01T05:40:12;38.30;;;19.27;;
57842;SDS011;43673;51.058;3.734;2023-03-01T05:42:46;36.65;;;20.27;;
57842;SDS011;43673;51.058;3.734;2023-03-01T05:45:20;33.35;;;20.15;;
57842;SDS011;43673;51.058;3.734;2023-03-01T05:47:48;27.58;;;16.98;;
57842;SDS011;43673;51.058;3.734;2023-03-01T05:52:49;28.13;;;17.73;;
57842;SDS011;43673;51.058;3.734;2023-03-01T05:55:19;32.40;;;18.80;;
57842;SDS011;43673;51.058;3.734;2023-03-01T05:57:46;30.45;;;18.58;;
57842;SDS011;43673;51.058;3.734;2023-03-01T06:00:13;30.65;;;17.75;;
57842;SDS011;43673;51.058;3.734;2023-03-01T06:02:40;33.85;;;19.30;;
57842;SDS011;43673;51.058;3.734;2023-03-01T06:05:06;31.05;;;18.35;;
57842;SDS011;43673;51.058;3.734;2023-03-01T06:07:34;29.00;;;17.38;;
57842;SDS011;43673;51.058;3.734;2023-03-01T06:10:00;30.58;;;16.90;;
57842;SDS011;43673;51.058;3.734;2023-03-01T06:12:29;35.38;;;20.10;;
57842;SDS011;43673;51.058;3.734;2023-03-01T06:14:58;30.23;;;19.30;;
57842;SDS011;43673;51.058;3.734;2023-03-01T06:17:24;30.35;;;18.15;;
57842;SDS011;43673;51.058;3.734;2023-03-01T06:19:50;26.73;;;18.10;;
57842;SDS011;43673;51.058;3.734;2023-03-01T06:22:16;29.77;;;18.50;;
57842;SDS011;43673;51.058;3.734;2023-03-01T06:24:41;29.90;;;18.20;;
57842;SDS011;43673;51.058;3.734;2023-03-01T06:27:07;30.83;;;17.50;;
57842;SDS011;43673;51.058;3.734;2023-03-01T06:29:33;26.80;;;16.83;;
57842;SDS011;43673;51.058;3.734;2023-03-01T06:31:59;28.05;;;16.77;;
57842;SDS011;43673;51.058;3.734;2023-03-01T06:34:24;29.77;;;17.38;;
57842;SDS011;43673;51.058;3.734;2023-03-01T06:36:50;31.90;;;16.98;;
57842;SDS011;43673;51.058;3.734;2023-03-01T06:39:16;32.15;;;19.55;;
57842;SDS011;43673;51.058;3.734;2023-03-01T06:41:42;28.55;;;17.92;;
57842;SDS011;43673;51.058;3.734;2023-03-01T06:44:08;26.13;;;16.20;;
57842;SDS011;43673;51.058;3.734;2023-03-01T06:46:34;32.13;;;17.38;;
57842;SDS011;43673;51.058;3.734;2023-03-01T06:49:00;30.92;;;18.98;;
57842;SDS011;43673;51.058;3.734;2023-03-01T06:51:26;31.77;;;18.30;;
57842;SDS011;43673;51.058;3.734;2023-03-01T06:53:51;31.92;;;17.98;;
57842;SDS011;43673;51.058;3.734;2023-03-01T07:04:01;24.27;;;14.75;;
57842;SDS011;43673;51.058;3.734;2023-03-01T07:06:28;20.75;;;13.75;;
57842;SDS011;43673;51.058;3.734;2023-03-01T07:08:54;22.00;;;14.00;;
57842;SDS011;43673;51.058;3.734;2023-03-01T07:11:21;24.48;;;16.08;;
57842;SDS011;43673;51.058;3.734;2023-03-01T07:13:48;24.13;;;14.80;;
57842;SDS011;43673;51.058;3.734;2023-03-01T07:16:14;25.70;;;15.00;;
57842;SDS011;43673;51.058;3.734;2023-03-01T07:18:40;22.08;;;13.50;;
57842;SDS011;43673;51.058;3.734;2023-03-01T07:21:07;22.08;;;13.70;;
57842;SDS011;43673;51.058;3.734;2023-03-01T07:23:34;23.88;;;14.90;;
57842;SDS011;43673;51.058;3.734;2023-03-01T07:26:00;27.33;;;15.68;;
57842;SDS011;43673;51.058;3.734;2023-03-01T07:28:26;26.38;;;14.20;;
57842;SDS011;43673;51.058;3.734;2023-03-01T07:30:53;25.85;;;14.68;;
57842;SDS011;43673;51.058;3.734;2023-03-01T07:33:22;23.83;;;15.45;;
57842;SDS011;43673;51.058;3.734;2023-03-01T07:35:47;23.05;;;14.43;;
57842;SDS011;43673;51.058;3.734;2023-03-01T07:38:13;28.15;;;15.90;;
57842;SDS011;43673;51.058;3.734;2023-03-01T07:40:39;22.77;;;13.65;;
57842;SDS011;43673;51.058;3.734;2023-03-01T07:43:05;23.67;;;13.75;;
57842;SDS011;43673;51.058;3.734;2023-03-01T07:45:33;21.23;;;14.35;;
57842;SDS011;43673;51.058;3.734;2023-03-01T07:47:59;25.10;;;15.75;;
57842;SDS011;43673;51.058;3.734;2023-03-01T07:50:25;18.83;;;13.00;;
57842;SDS011;43673;51.058;3.734;2023-03-01T07:52:50;19.10;;;12.43;;
57842;SDS011;43673;51.058;3.734;2023-03-01T07:55:16;19.10;;;12.32;;
57842;SDS011;43673;51.058;3.734;2023-03-01T07:57:42;20.73;;;13.35;;
57842;SDS011;43673;51.058;3.734;2023-03-01T08:00:09;23.83;;;13.55;;
57842;SDS011;43673;51.058;3.734;2023-03-01T08:02:36;25.35;;;13.95;;
57842;SDS011;43673;51.058;3.734;2023-03-01T08:05:02;21.95;;;13.20;;
57842;SDS011;43673;51.058;3.734;2023-03-01T08:07:28;19.25;;;12.65;;
57842;SDS011;43673;51.058;3.734;2023-03-01T08:09:54;21.33;;;12.63;;
57842;SDS011;43673;51.058;3.734;2023-03-01T08:12:20;17.05;;;11.52;;
57842;SDS011;43673;51.058;3.734;2023-03-01T08:14:45;18.73;;;10.93;;
57842;SDS011;43673;51.058;3.734;2023-03-01T08:17:13;14.95;;;12.13;;
57842;SDS011;43673;51.058;3.734;2023-03-01T08:19:39;19.48;;;13.65;;
57842;SDS011;43673;51.058;3.734;2023-03-01T08:22:05;20.88;;;12.80;;
57842;SDS011;43673;51.058;3.734;2023-03-01T08:24:31;16.05;;;12.32;;
57842;SDS011;43673;51.058;3.734;2023-03-01T08:26:56;19.75;;;13.85;;
57842;SDS011;43673;51.058;3.734;2023-03-01T08:29:22;18.98;;;12.35;;
57842;SDS011;43673;51.058;3.734;2023-03-01T08:31:49;15.77;;;10.93;;
57842;SDS011;43673;51.058;3.734;2023-03-01T08:34:16;15.02;;;11.48;;
57842;SDS011;43673;51.058;3.734;2023-03-01T08:36:43;18.38;;;12.00;;
57842;SDS011;43673;51.058;3.734;2023-03-01T08:39:11;18.95;;;11.40;;
57842;SDS011;43673;51.058;3.734;2023-03-01T08:41:39;19.15;;;11.30;;
57842;SDS011;43673;51.058;3.734;2023-03-01T08:44:05;15.68;;;11.05;;
57842;SDS011;43673;51.058;3.734;2023-03-01T08:46:32;14.18;;;10.25;;
57842;SDS011;43673;51.058;3.734;2023-03-01T08:49:03;16.40;;;11.57;;
57842;SDS011;43673;51.058;3.734;2023-03-01T08:51:30;17.40;;;11.40;;
57842;SDS011;43673;51.058;3.734;2023-03-01T08:54:01;16.67;;;11.23;;
57842;SDS011;43673;51.058;3.734;2023-03-01T08:56:37;18.50;;;11.98;;
57842;SDS011;43673;51.058;3.734;2023-03-01T08:59:03;16.70;;;11.18;;
57842;SDS011;43673;51.058;3.734;2023-03-01T09:01:29;20.58;;;12.77;;
57842;SDS011;43673;51.058;3.734;2023-03-01T09:03:55;21.20;;;12.23;;
57842;SDS011;43673;51.058;3.734;2023-03-01T09:06:21;15.45;;;10.05;;
57842;SDS011;43673;51.058;3.734;2023-03-01T09:08:47;21.52;;;13.55;;
57842;SDS011;43673;51.058;3.734;2023-03-01T09:11:15;19.05;;;11.07;;
57842;SDS011;43673;51.058;3.734;2023-03-01T09:13:45;18.30;;;10.85;;
57842;SDS011;43673;51.058;3.734;2023-03-01T09:16:13;18.60;;;10.85;;
57842;SDS011;43673;51.058;3.734;2023-03-01T09:18:42;13.30;;;10.45;;
57842;SDS011;43673;51.058;3.734;2023-03-01T09:21:12;16.98;;;12.20;;
57842;SDS011;43673;51.058;3.734;2023-03-01T09:23:41;15.32;;;9.68;;
57842;SDS011;43673;51.058;3.734;2023-03-01T09:26:09;16.55;;;12.88;;
57842;SDS011;43673;51.058;3.734;2023-03-01T09:28:37;17.58;;;12.10;;
57842;SDS011;43673;51.058;3.734;2023-03-01T09:31:04;18.05;;;10.55;;
57842;SDS011;43673;51.058;3.734;2023-03-01T09:33:30;15.25;;;10.55;;
57842;SDS011;43673;51.058;3.734;2023-03-01T09:36:03;13.82;;;10.98;;
57842;SDS011;43673;51.058;3.734;2023-03-01T09:38:32;15.27;;;11.18;;
57842;SDS011;43673;51.058;3.734;2023-03-01T09:40:58;16.80;;;10.65;;
57842;SDS011;43673;51.058;3.734;2023-03-01T09:45:56;14.73;;;9.85;;
57842;SDS011;43673;51.058;3.734;2023-03-01T09:48:26;15.77;;;11.18;;
57842;SDS011;43673;51.058;3.734;2023-03-01T09:51:05;13.70;;;10.73;;
57842;SDS011;43673;51.058;3.734;2023-03-01T09:53:38;14.32;;;10.48;;
57842;SDS011;43673;51.058;3.734;2023-03-01T10:01:23;11.93;;;9.57;;
57842;SDS011;43673;51.058;3.734;2023-03-01T10:06:58;15.82;;;10.00;;
57842;SDS011;43673;51.058;3.734;2023-03-01T10:09:43;14.10;;;10.60;;
57842;SDS011;43673;51.058;3.734;2023-03-01T10:12:13;12.90;;;8.95;;
57842;SDS011;43673;51.058;3.734;2023-03-01T10:17:51;11.20;;;9.45;;
57842;SDS011;43673;51.058;3.734;2023-03-01T10:20:23;11.55;;;9.40;;
57842;SDS011;43673;51.058;3.734;2023-03-01T10:22:58;12.50;;;9.15;;
57842;SDS011;43673;51.058;3.734;2023-03-01T10:31:18;13.18;;;9.05;;
57842;SDS011;43673;51.058;3.734;2023-03-01T10:33:57;11.23;;;8.23;;
57842;SDS011;43673;51.058;3.734;2023-03-01T10:36:24;95.65;;;50.60;;
57842;SDS011;43673;51.058;3.734;2023-03-01T10:38:54;11.93;;;9.23;;
57842;SDS011;43673;51.058;3.734;2023-03-01T10:41:21;16.55;;;10.18;;
57842;SDS011;43673;51.058;3.734;2023-03-01T10:43:50;12.57;;;9.38;;
57842;SDS011;43673;51.058;3.734;2023-03-01T10:46:29;12.68;;;9.07;;
57842;SDS011;43673;51.058;3.734;2023-03-01T10:49:20;11.13;;;8.30;;
57842;SDS011;43673;51.058;3.734;2023-03-01T10:51:48;11.60;;;9.93;;
57842;SDS011;43673;51.058;3.734;2023-03-01T10:54:19;13.68;;;10.23;;
57842;SDS011;43673;51.058;3.734;2023-03-01T10:56:55;12.57;;;9.10;;
57842;SDS011;43673;51.058;3.734;2023-03-01T10:59:26;13.33;;;10.83;;
57842;SDS011;43673;51.058;3.734;2023-03-01T11:02:04;10.40;;;8.45;;
57842;SDS011;43673;51.058;3.734;2023-03-01T11:05:00;11.35;;;8.32;;
57842;SDS011;43673;51.058;3.734;2023-03-01T11:07:51;10.55;;;9.00;;
57842;SDS011;43673;51.058;3.734;2023-03-01T11:10:28;13.93;;;9.35;;
57842;SDS011;43673;51.058;3.734;2023-03-01T11:13:07;16.73;;;9.02;;
57842;SDS011;43673;51.058;3.734;2023-03-01T11:18:57;10.63;;;8.57;;
57842;SDS011;43673;51.058;3.734;2023-03-01T11:24:09;13.63;;;8.55;;
57842;SDS011;43673;51.058;3.734;2023-03-01T11:26:39;13.23;;;8.88;;
57842;SDS011;43673;51.058;3.734;2023-03-01T11:29:12;23.48;;;14.68;;
57842;SDS011;43673;51.058;3.734;2023-03-01T11:32:01;15.90;;;8.60;;
57842;SDS011;43673;51.058;3.734;2023-03-01T11:37:36;21.88;;;13.13;;
57842;SDS011;43673;51.058;3.734;2023-03-01T11:43:13;13.70;;;8.75;;
57842;SDS011;43673;51.058;3.734;2023-03-01T11:51:04;12.27;;;8.40;;
57842;SDS011;43673;51.058;3.734;2023-03-01T11:56:22;11.48;;;7.97;;
57842;SDS011;43673;51.058;3.734;2023-03-01T12:06:59;11.48;;;7.85;;
57842;SDS011;43673;51.058;3.734;2023-03-01T12:09:43;9.45;;;7.07;;
57842;SDS011;43673;51.058;3.734;2023-03-01T12:33:17;8.10;;;6.68;;
57842;SDS011;43673;51.058;3.734;2023-03-01T12:38:59;11.77;;;7.85;;
57842;SDS011;43673;51.058;3.734;2023-03-01T12:44:42;10.00;;;7.20;;
57842;SDS011;43673;51.058;3.734;2023-03-01T12:47:56;18.65;;;11.77;;
57842;SDS011;43673;51.058;3.734;2023-03-01T12:50:26;10.95;;;6.90;;
57842;SDS011;43673;51.058;3.734;2023-03-01T12:55:34;10.45;;;6.88;;
57842;SDS011;43673;51.058;3.734;2023-03-01T12:58:21;9.38;;;7.10;;
57842;SDS011;43673;51.058;3.734;2023-03-01T13:06:40;13.35;;;8.23;;
57842;SDS011;43673;51.058;3.734;2023-03-01T13:11:56;8.85;;;7.95;;
57842;SDS011;43673;51.058;3.734;2023-03-01T13:16:48;10.93;;;7.18;;
57842;SDS011;43673;51.058;3.734;2023-03-01T13:22:36;12.82;;;7.20;;
57842;SDS011;43673;51.058;3.734;2023-03-01T14:03:59;8.80;;;7.43;;
57842;SDS011;43673;51.058;3.734;2023-03-01T14:06:32;12.10;;;7.97;;
57842;SDS011;43673;51.058;3.734;2023-03-01T14:27:01;15.43;;;9.68;;
57842;SDS011;43673;51.058;3.734;2023-03-01T14:29:33;17.05;;;10.32;;
57842;SDS011;43673;51.058;3.734;2023-03-01T14:34:43;11.45;;;7.95;;
57842;SDS011;43673;51.058;3.734;2023-03-01T14:37:19;13.32;;;7.60;;
57842;SDS011;43673;51.058;3.734;2023-03-01T15:00:59;15.73;;;8.63;;
57842;SDS011;43673;51.058;3.734;2023-03-01T15:21:43;13.13;;;9.70;;
57842;SDS011;43673;51.058;3.734;2023-03-01T15:29:28;10.27;;;7.75;;
57842;SDS011;43673;51.058;3.734;2023-03-01T15:37:45;14.60;;;7.90;;
57842;SDS011;43673;51.058;3.734;2023-03-01T15:40:22;11.40;;;7.93;;
57842;SDS011;43673;51.058;3.734;2023-03-01T15:43:05;12.57;;;7.90;;
57842;SDS011;43673;51.058;3.734;2023-03-01T15:48:47;16.30;;;10.95;;
57842;SDS011;43673;51.058;3.734;2023-03-01T15:51:19;12.38;;;8.57;;
57842;SDS011;43673;51.058;3.734;2023-03-01T15:53:53;11.55;;;9.32;;
57842;SDS011;43673;51.058;3.734;2023-03-01T15:59:05;13.25;;;9.52;;
57842;SDS011;43673;51.058;3.734;2023-03-01T16:01:35;16.90;;;9.52;;
57842;SDS011;43673;51.058;3.734;2023-03-01T16:06:37;15.45;;;10.27;;
57842;SDS011;43673;51.058;3.734;2023-03-01T16:16:50;11.20;;;8.75;;
57842;SDS011;43673;51.058;3.734;2023-03-01T16:19:16;13.38;;;9.45;;
57842;SDS011;43673;51.058;3.734;2023-03-01T16:21:42;13.00;;;10.25;;
57842;SDS011;43673;51.058;3.734;2023-03-01T16:24:08;15.40;;;10.20;;
57842;SDS011;43673;51.058;3.734;2023-03-01T16:44:42;14.95;;;9.25;;
57842;SDS011;43673;51.058;3.734;2023-03-01T17:06:05;16.52;;;10.57;;
57842;SDS011;43673;51.058;3.734;2023-03-01T17:09:29;14.52;;;10.32;;
57842;SDS011;43673;51.058;3.734;2023-03-01T17:12:16;15.63;;;10.77;;
57842;SDS011;43673;51.058;3.734;2023-03-01T17:30:10;19.45;;;11.38;;
57842;SDS011;43673;51.058;3.734;2023-03-01T17:32:38;16.00;;;10.43;;
57842;SDS011;43673;51.058;3.734;2023-03-01T17:35:05;15.45;;;10.85;;
57842;SDS011;43673;51.058;3.734;2023-03-01T17:37:32;16.70;;;10.73;;
57842;SDS011;43673;51.058;3.734;2023-03-01T17:39:58;18.65;;;11.07;;
57842;SDS011;43673;51.058;3.734;2023-03-01T17:42:24;14.70;;;10.20;;
57842;SDS011;43673;51.058;3.734;2023-03-01T17:44:49;22.60;;;10.73;;
57842;SDS011;43673;51.058;3.734;2023-03-01T17:47:18;14.30;;;11.13;;
57842;SDS011;43673;51.058;3.734;2023-03-01T17:49:44;19.85;;;10.82;;
57842;SDS011;43673;51.058;3.734;2023-03-01T17:52:09;17.38;;;11.25;;
57842;SDS011;43673;51.058;3.734;2023-03-01T17:54:35;15.57;;;9.43;;
57842;SDS011;43673;51.058;3.734;2023-03-01T17:57:01;18.95;;;11.00;;
57842;SDS011;43673;51.058;3.734;2023-03-01T17:59:27;17.38;;;10.18;;
57842;SDS011;43673;51.058;3.734;2023-03-01T18:01:55;20.55;;;10.15;;
57842;SDS011;43673;51.058;3.734;2023-03-01T18:04:22;17.95;;;10.07;;
57842;SDS011;43673;51.058;3.734;2023-03-01T18:06:48;16.95;;;10.52;;
57842;SDS011;43673;51.058;3.734;2023-03-01T18:09:14;17.95;;;10.55;;
57842;SDS011;43673;51.058;3.734;2023-03-01T18:11:42;17.92;;;10.63;;
57842;SDS011;43673;51.058;3.734;2023-03-01T18:14:08;13.18;;;9.50;;
57842;SDS011;43673;51.058;3.734;2023-03-01T18:16:34;15.40;;;9.60;;
57842;SDS011;43673;51.058;3.734;2023-03-01T18:19:00;21.30;;;10.25;;
57842;SDS011;43673;51.058;3.734;2023-03-01T18:21:26;18.52;;;10.13;;
57842;SDS011;43673;51.058;3.734;2023-03-01T18:23:53;15.93;;;10.60;;
57842;SDS011;43673;51.058;3.734;2023-03-01T18:26:19;14.70;;;10.15;;
57842;SDS011;43673;51.058;3.734;2023-03-01T18:28:46;14.85;;;9.90;;
57842;SDS011;43673;51.058;3.734;2023-03-01T18:31:15;14.30;;;10.30;;
57842;SDS011;43673;51.058;3.734;2023-03-01T18:33:42;15.63;;;9.75;;
57842;SDS011;43673;51.058;3.734;2023-03-01T18:36:42;15.90;;;10.25;;
57842;SDS011;43673;51.058;3.734;2023-03-01T18:39:03;15.05;;;10.57;;
57842;SDS011;43673;51.058;3.734;2023-03-01T18:41:30;16.17;;;10.40;;
57842;SDS011;43673;51.058;3.734;2023-03-01T18:43:57;15.30;;;11.32;;
57842;SDS011;43673;51.058;3.734;2023-03-01T18:46:23;19.38;;;11.48;;
57842;SDS011;43673;51.058;3.734;2023-03-01T18:51:21;21.70;;;10.80;;
57842;SDS011;43673;51.058;3.734;2023-03-01T18:53:49;17.33;;;11.15;;
57842;SDS011;43673;51.058;3.734;2023-03-01T18:56:15;15.25;;;10.90;;
57842;SDS011;43673;51.058;3.734;2023-03-01T18:58:42;15.63;;;10.90;;
57842;SDS011;43673;51.058;3.734;2023-03-01T19:01:11;20.85;;;12.15;;
57842;SDS011;43673;51.058;3.734;2023-03-01T19:03:42;20.30;;;12.15;;
57842;SDS011;43673;51.058;3.734;2023-03-01T19:06:08;20.25;;;12.13;;
57842;SDS011;43673;51.058;3.734;2023-03-01T19:08:34;23.00;;;12.52;;
57842;SDS011;43673;51.058;3.734;2023-03-01T19:11:02;17.25;;;10.65;;
57842;SDS011;43673;51.058;3.734;2023-03-01T19:13:29;21.10;;;12.13;;
57842;SDS011;43673;51.058;3.734;2023-03-01T19:16:02;11.48;;;10.27;;
57842;SDS011;43673;51.058;3.734;2023-03-01T19:18:33;19.55;;;11.43;;
57842;SDS011;43673;51.058;3.734;2023-03-01T19:21:02;18.23;;;11.23;;
57842;SDS011;43673;51.058;3.734;2023-03-01T19:23:28;19.27;;;11.63;;
57842;SDS011;43673;51.058;3.734;2023-03-01T19:25:58;19.35;;;11.20;;
57842;SDS011;43673;51.058;3.734;2023-03-01T19:28:38;17.48;;;11.05;;
57842;SDS011;43673;51.058;3.734;2023-03-01T19:31:07;18.75;;;11.45;;
57842;SDS011;43673;51.058;3.734;2023-03-01T19:33:35;19.38;;;12.20;;
57842;SDS011;43673;51.058;3.734;2023-03-01T19:36:04;17.38;;;10.70;;
57842;SDS011;43673;51.058;3.734;2023-03-01T19:38:30;22.05;;;12.80;;
57842;SDS011;43673;51.058;3.734;2023-03-01T19:40:56;19.85;;;12.05;;